Flight Track Log - Related Links

Times and Time Zones

All times are in EDT time to prevent confusion due to time zone crossing. See the UAL4553 flight status page for this flight to view local times or setup timezone preferences in your user account.

Time Position Orientation Groundspeed Altitude Reporting Facility
EDT Latitude Longitude Course Direction KTS MPH feet Rate Location/Type
Mon 02:01:07 PM 34.8250 -82.2725 239° Southwest 212 244 4,200  Level Atlanta Center
Mon 02:02:07 PM 34.7672 -82.3117 209° Southwest 224 258 6,600 2,550 Climbing Atlanta Center
Mon 02:03:00 PM 34.6105 -82.5378 224° Southwest  Level FlightAware Approximate
Mon 02:03:07 PM 34.7158 -82.3683 222° Southwest 239 275 9,300  Level Atlanta Center
Mon 02:04:00 PM 34.5406 -82.6179 223° Southwest  Level FlightAware Approximate
Mon 02:04:07 PM 34.6708 -82.4350 231° Southwest 252 290 12,000  Level Atlanta Center
Mon 02:05:00 PM 34.4724 -82.6998 231° Southwest  Level FlightAware Approximate
Mon 02:05:07 PM 34.6217 -82.5117 232° Southwest 276 318 13,200  Level Atlanta Center
Mon 02:06:00 PM 34.4128 -82.7911 239° Southwest  Level FlightAware Approximate
Mon 02:06:07 PM 34.5747 -82.5958 236° Southwest 314 361 14,200  Level Atlanta Center
Mon 02:07:07 PM 34.5008 -82.7131 233° Southwest 348 400 16,200 1,750 Climbing Atlanta Center
Mon 02:08:07 PM 34.4414 -82.8122 234° Southwest 370 426 17,700 1,700 Climbing Atlanta Center
Mon 02:09:07 PM 34.3839 -82.9086 234° Southwest 365 420 19,600 2,100 Climbing Atlanta Center
Mon 02:10:07 PM 34.3222 -83.0075 233° Southwest 365 420 21,900 2,350 Climbing Atlanta Center
Mon 02:11:07 PM 34.2686 -83.1011 235° Southwest 358 412 24,300 2,000 Climbing Atlanta Center
Mon 02:12:07 PM 34.2192 -83.1797 233° Southwest 353 406 25,900 2,150 Climbing Atlanta Center
Mon 02:13:07 PM 34.1614 -83.2756 234° Southwest 329 379 28,600 2,200 Climbing Atlanta Center
Mon 02:14:07 PM 34.1117 -83.3564 233° Southwest 316 364 30,300 1,300 Climbing Atlanta Center
Mon 02:15:07 PM 34.0683 -83.4294 234° Southwest 309 356 31,200 950 Climbing Atlanta Center
Mon 02:16:07 PM 34.0144 -83.5125 232° Southwest 309 356 32,200 1,050 Climbing Atlanta Center
Mon 02:17:07 PM 33.9606 -83.6006 234° Southwest 319 367 33,300 1,000 Climbing Atlanta Center
Mon 02:18:07 PM 33.9064 -83.6858 233° Southwest 324 373 34,200 850 Climbing Atlanta Center
Mon 02:19:07 PM 33.8503 -83.7786 234° Southwest 334 384 35,000 850 Climbing Atlanta Center
Mon 02:20:07 PM 33.7942 -83.8689 233° Southwest 341 392 35,900 500 Climbing Atlanta Center
Mon 02:21:07 PM 33.7294 -83.9714 233° Southwest 341 392 36,000 50 Climbing Atlanta Center
Mon 02:22:07 PM 33.6669 -84.0736 234° Southwest 366 421 36,000  Level Atlanta Center
Mon 02:23:07 PM 33.6022 -84.1786 234° Southwest 389 448 36,000  Level Atlanta Center
Mon 02:24:07 PM 33.5331 -84.2881 233° Southwest 406 467 36,000  Level Atlanta Center
Mon 02:25:07 PM 33.4639 -84.3975 233° Southwest 412 474 36,000  Level Atlanta Center
Mon 02:26:07 PM 33.3947 -84.5092 233° Southwest 412 474 36,000  Level Atlanta Center
Mon 02:27:07 PM 33.3317 -84.6058 232° Southwest 417 480 36,000  Level Atlanta Center
Mon 02:28:07 PM 33.2644 -84.7122 233° Southwest 411 473 36,000  Level Atlanta Center
Mon 02:29:07 PM 33.1989 -84.8183 234° Southwest 411 473 36,000  Level Atlanta Center
Mon 02:30:07 PM 33.1336 -84.9244 234° Southwest 411 473 36,000  Level Atlanta Center
Mon 02:31:07 PM 33.0661 -85.0303 233° Southwest 411 473 36,000  Level Atlanta Center
Mon 02:32:07 PM 32.9919 -85.1433 232° Southwest 401 461 36,000  Level Atlanta Center
Mon 02:33:07 PM 32.9242 -85.2417 231° Southwest 396 456 36,000  Level Atlanta Center
Mon 02:34:07 PM 32.8606 -85.3444 234° Southwest 396 456 36,000  Level Atlanta Center
Mon 02:35:07 PM 32.7928 -85.4447 231° Southwest 396 456 36,000  Level Atlanta Center
Mon 02:36:07 PM 32.7289 -85.5500 234° Southwest 396 456 36,000  Level Atlanta Center
Mon 02:37:07 PM 32.6586 -85.6525 231° Southwest 396 456 36,000  Level Atlanta Center
Mon 02:38:07 PM 32.5925 -85.7547 233° Southwest 396 456 36,000  Level Atlanta Center
Mon 02:39:07 PM 32.5264 -85.8594 233° Southwest 396 456 36,000  Level Atlanta Center
Mon 02:40:07 PM 32.4603 -85.9542 230° Southwest 410 472 36,000  Level Atlanta Center
Mon 02:41:07 PM 32.3917 -86.0583 232° Southwest 410 472 36,000  Level Atlanta Center
Mon 02:42:07 PM 32.3253 -86.1625 233° Southwest 410 472 36,000  Level Atlanta Center
Mon 02:43:07 PM 32.2589 -86.2617 232° Southwest 403 464 36,000  Level Atlanta Center
Mon 02:44:07 PM 32.1922 -86.3656 233° Southwest 403 464 36,000  Level Atlanta Center
Mon 02:45:07 PM 32.1214 -86.4717 232° Southwest 403 464 36,000  Level Atlanta Center
Mon 02:46:07 PM 32.0506 -86.5700 230° Southwest 398 458 36,000  Level Atlanta Center
Mon 02:47:07 PM 31.9797 -86.6661 229° Southwest 398 458 36,000  Level Atlanta Center
Mon 02:48:07 PM 31.9108 -86.7544 227° Southwest 403 464 36,000  Level Atlanta Center
Mon 02:49:07 PM 31.8400 -86.8503 229° Southwest 403 464 36,000  Level Atlanta Center
Mon 02:51:07 PM 31.6997 -87.0436 230° Southwest 398 458 36,000  Level Atlanta Center
Mon 02:52:07 PM 31.6283 -87.1483 231° Southwest 393 452 36,000  Level Atlanta Center
Mon 02:54:07 PM 31.4864 -87.3342 228° Southwest 388 447 36,000  Level Houston Center
Mon 02:55:10 PM 31.4164 -87.4319 230° Southwest 390 449 36,000  Level Houston Center
Mon 02:56:12 PM 31.3447 -87.5278 229° Southwest 390 449 36,000  Level Houston Center
Mon 02:57:14 PM 31.2761 -87.6247 230° Southwest 388 447 36,000  Level Houston Center
Mon 02:58:16 PM 31.1989 -87.7250 228° Southwest 390 449 36,000  Level Houston Center
Mon 02:59:18 PM 31.1267 -87.8192 228° Southwest 391 450 36,000  Level Houston Center
Mon 03:00:20 PM 31.0453 -87.9322 230° Southwest 383 441 36,000  Level Houston Center
Mon 03:01:22 PM 30.9744 -88.0261 229° Southwest 384 442 36,000  Level Houston Center
Mon 03:02:24 PM 30.9031 -88.1211 229° Southwest 388 447 36,000  Level Houston Center
Mon 03:03:27 PM 30.8311 -88.2150 228° Southwest 388 447 36,000  Level Houston Center
Mon 03:04:29 PM 30.7597 -88.3083 228° Southwest 388 447 36,000  Level Houston Center
Mon 03:05:31 PM 30.6989 -88.4358 241° Southwest 382 440 36,000  Level Houston Center
Mon 03:06:33 PM 30.6583 -88.5514 248° West 379 436 36,000  Level Houston Center
Mon 03:07:35 PM 30.6186 -88.6669 248° West 383 441 36,000  Level Houston Center
Mon 03:08:37 PM 30.5797 -88.7806 248° West 380 437 36,000  Level Houston Center
Mon 03:09:40 PM 30.5400 -88.8953 248° West 383 441 36,000  Level Houston Center
Mon 03:10:42 PM 30.5022 -89.0064 248° West 382 440 36,000  Level Houston Center
Mon 03:11:44 PM 30.4544 -89.1456 248° West 386 444 36,000  Level Houston Center
Mon 03:12:46 PM 30.4139 -89.2606 248° West 386 444 36,000  Level Houston Center
Mon 03:13:48 PM 30.3742 -89.3767 248° West 385 443 36,000  Level Houston Center
Mon 03:14:50 PM 30.3333 -89.4922 248° West 388 447 36,000  Level Houston Center
Mon 03:15:52 PM 30.2925 -89.6075 248° West 384 442 36,000  Level Houston Center
Mon 03:16:55 PM 30.2483 -89.7256 247° West 389 448 36,000  Level Houston Center
Mon 03:17:57 PM 30.2067 -89.8456 248° West 392 451 36,000  Level Houston Center
Mon 03:18:59 PM 30.1672 -89.9622 249° West 387 445 36,000  Level Houston Center
Mon 03:20:01 PM 30.1181 -90.0997 248° West 388 447 36,000  Level Houston Center
Mon 03:21:03 PM 30.0764 -90.2139 247° West 386 444 36,000  Level Houston Center
Mon 03:22:05 PM 30.0358 -90.3278 248° West 385 443 36,000  Level Houston Center
Mon 03:23:07 PM 29.9953 -90.4422 248° West 387 445 36,000  Level Houston Center
Mon 03:24:09 PM 29.9533 -90.5567 247° West 389 448 36,000  Level Houston Center
Mon 03:25:12 PM 29.9122 -90.6694 247° West 384 442 36,000  Level Houston Center
Mon 03:26:14 PM 29.8631 -90.8058 247° West 384 442 36,000  Level Houston Center
Mon 03:27:16 PM 29.8214 -90.9192 247° West 386 444 36,000  Level Houston Center
Mon 03:28:18 PM 29.7792 -91.0325 247° West 387 445 36,000  Level Houston Center
Mon 03:29:20 PM 29.7383 -91.1458 247° West 385 443 36,000  Level Houston Center
Mon 03:30:22 PM 29.6972 -91.2578 247° West 381 438 36,000  Level Houston Center
Mon 03:31:24 PM 29.6556 -91.3694 247° West 381 438 36,000  Level Houston Center
Mon 03:32:27 PM 29.6147 -91.5069 251° West 382 440 36,000  Level Houston Center
Mon 03:33:29 PM 29.5950 -91.6258 259° West 380 437 36,000  Level Houston Center
Mon 03:34:31 PM 29.5761 -91.7417 259° West 377 434 36,000  Level Houston Center
Mon 03:35:33 PM 29.5558 -91.8622 259° West 382 440 36,000  Level Houston Center
Mon 03:36:35 PM 29.5353 -91.9808 259° West 380 437 36,000  Level Houston Center
Mon 03:37:37 PM 29.5133 -92.1233 260° West 381 438 36,000  Level Houston Center
Mon 03:38:39 PM 29.4933 -92.2414 259° West 377 434 36,000  Level Houston Center
Mon 03:39:41 PM 29.4733 -92.3608 259° West 380 437 36,000  Level Houston Center
Mon 03:40:44 PM 29.4575 -92.4800 261° West 378 435 36,000  Level Houston Center
Mon 03:41:46 PM 29.4625 -92.6014 273° West 381 438 36,000  Level Houston Center
Mon 03:42:48 PM 29.4689 -92.7219 274° West 380 437 36,000 -97 Level Houston Center
Mon 03:43:50 PM 29.4758 -92.8683 273° West 381 438 35,800 -629 Descending Houston Center
Mon 03:44:52 PM 29.4811 -92.9914 273° West 383 441 34,700 -1,403 Descending Houston Center
Mon 03:45:54 PM 29.4861 -93.1164 273° West 390 449 32,900 -1,887 Descending Houston Center
Mon 03:46:56 PM 29.4919 -93.2433 273° West 397 457 30,800 -2,016 Descending Houston Center
Mon 03:47:59 PM 29.4969 -93.3750 273° West 408 470 28,700 -2,064 Descending Houston Center
Mon 03:49:01 PM 29.5025 -93.5117 273° West 424 488 26,500 -2,371 Descending Houston Center
Mon 03:50:03 PM 29.5089 -93.6783 273° West 434 499 23,800 -2,565 Descending Houston Center
Mon 03:51:05 PM 29.5136 -93.8094 272° West 422 486 21,200 -2,419 Descending Houston Center
Mon 03:52:07 PM 29.5183 -93.9361 272° West 407 468 18,800 -2,415 Descending Houston Center
Mon 03:52:27 PM 29.5194 -93.9889 271° West 389 448 17,900 -2,032 Descending Houston Center
Mon 03:53:09 PM 29.5228 -94.0592 273° West 393 452 16,700 -1,953 Descending Houston Center
Mon 03:53:53 PM 29.5267 -94.1633 272° West 385 443 15,100 -1,935 Descending Houston Center
Mon 03:54:11 PM 29.5272 -94.1825 272° West 385 443 14,700 -1,821 Descending Houston Center
Mon 03:54:49 PM 29.5306 -94.2664 273° West 337 388 13,400 -1,548 Descending Houston Center
Mon 03:55:13 PM 29.5311 -94.2922 271° West 355 409 13,100 -400 Descending Houston Center
Mon 03:55:49 PM 29.5433 -94.3728 280° West 337 388 13,000 -95 Descending Houston Center
Mon 03:56:16 PM 29.5544 -94.3942 301° West 351 404 13,000 -689 Level Houston Center
Mon 03:56:50 PM 29.5867 -94.4706 296° West 336 387 12,300 -1,065 Descending Houston Center
Mon 03:57:18 PM 29.6031 -94.5086 296° West 336 387 11,900 -857 Descending Houston Center
Mon 03:57:46 PM 29.6222 -94.5550 295° West 329 379 11,500 -871 Descending Houston Center
Mon 03:58:20 PM 29.6433 -94.6014 298° West 329 379 11,000 -984 Descending Houston Center
Mon 03:58:47 PM 29.6631 -94.6483 296° West 318 366 10,500 -968 Descending Houston Center
Mon 03:59:22 PM 29.6811 -94.6889 297° West 316 364 10,000 -984 Descending Houston Center
Mon 03:59:48 PM 29.6986 -94.7353 293° West 288 331 9,500 -968 Descending Houston Center
Mon 04:00:24 PM 29.7150 -94.7714 298° West 295 339 9,000 -971 Descending Houston Center
Mon 04:00:56 PM 29.7369 -94.8267 295° West 289 333 8,400 -871 Descending Houston Center
Mon 04:01:26 PM 29.7506 -94.8533 300° West 290 334 8,100 -1,000 Descending Houston Center
Mon 04:02:02 PM 29.7772 -94.9203 295° West 284 327 7,300 -1,161 Descending Houston Center
Mon 04:02:28 PM 29.7914 -94.9508 298° West 285 328 6,900 -964 Descending Houston Center
Mon 04:02:58 PM 29.8075 -94.9936 293° West 284 327 6,400 -774 Descending Houston Center
Mon 04:03:30 PM 29.8258 -95.0317 299° West 284 327 6,100 -295 Descending Houston Center
Mon 04:03:59 PM 29.8428 -95.0786 293° West 284 327 6,100 -95 Level Houston Center
Mon 04:04:33 PM 29.8592 -95.1119 300° West 282 325 6,000  Descending Houston Center
Mon 04:04:55 PM 29.8747 -95.1517 294° West 273 314 6,100  Climbing Houston Center
Mon 04:05:35 PM 29.8919 -95.1908 297° West 276 318 6,000  Descending Houston Center
Mon 04:06:02 PM 29.8981 -95.2453 277° West 285 328 6,100 97 Climbing Houston Center
Mon 04:06:37 PM 29.9003 -95.2969 273° West 282 325 6,100 -98 Level Houston Center
Mon 04:07:03 PM 29.9000 -95.3342 270° West 283 326 6,000 -97 Descending Houston Center
Mon 04:07:39 PM 29.9003 -95.3867 270° West 283 326 6,000 107 Level Houston Center
Mon 04:07:59 PM 29.8992 -95.4161 268° West 279 321 6,100 97 Climbing Houston Center
Mon 04:08:41 PM 29.9006 -95.4728 272° West 274 315 6,100 -269 Level Houston Center
Mon 04:09:06 PM 29.8989 -95.5053 267° West 216 249 5,800 -871 Descending Houston Center
Mon 04:09:43 PM 29.9014 -95.5408 275° West 218 251 5,200 -1,082 Descending Houston Center
Mon 04:10:07 PM 29.8989 -95.5753 265° West 206 237 4,700 -968 Descending Houston Center
Mon 04:10:45 PM 29.9008 -95.6097 274° West 216 249 4,200 -581 Descending Houston Center
Mon 04:11:09 PM 29.9069 -95.6417 282° West 216 249 4,100 -286 Descending Houston Center
Mon 04:11:48 PM 29.9425 -95.6400 North 200 230 3,900 -393 Descending Houston Center
Mon 04:12:10 PM 29.9489 -95.6200 70° East 177 204 3,700 -677 Descending Houston Center
Mon 04:12:50 PM 29.9636 -95.5892 61° Northeast 180 207 3,200 -581 Descending Houston Center
Mon 04:13:12 PM 29.9717 -95.5692 65° Northeast 168 193 3,100 -97 Descending Houston Center
Mon 04:13:52 PM 29.9861 -95.5383 62° Northeast 176 203 3,100 -295 Level Houston Center
Mon 04:14:13 PM 29.9944 -95.5181 65° Northeast 178 205 2,800 -774 Descending Houston Center
Mon 04:14:54 PM 29.9944 -95.4836 90° East 177 204 2,300 -896 Descending Houston Center
Mon 04:15:20 PM 29.9928 -95.4531 94° East 179 206 1,800 -871 Descending Houston Center
Mon 04:15:56 PM 29.9944 -95.4303 85° East 172 198 1,400 -677 Descending Houston Center
Mon 04:16:22 PM 29.9931 -95.4097 94° East 131 151 1,100 -677 Descending Houston Center
Mon 04:16:58 PM 29.9939 -95.3869 88° East 156 180 700 -655 Descending Houston Center
Mon 04:17:17 PM 29.9936 -95.3711 91° East 128 147 500 -194 Descending Houston Center
Mon 04:18:00 PM 29.9942 -95.3378 89° East 148 170 500  Level Houston Center

Login

Don't have an account? Register now (free) for customized features, flight alerts, and more!